createdAt,value
2022-10-30T00:01:26.433Z,11.17
2022-10-30T00:03:53.214Z,10.40
2022-10-30T00:06:20.077Z,11.17
2022-10-30T00:08:46.806Z,14.57
2022-10-30T00:11:14.882Z,12.33
2022-10-30T00:13:43.523Z,13.63
2022-10-30T00:16:10.669Z,15.10
2022-10-30T00:18:38.010Z,12.87
2022-10-30T00:21:06.498Z,13.40
2022-10-30T00:23:33.230Z,12.23
2022-10-30T00:26:03.345Z,11.37
2022-10-30T00:28:31.606Z,10.33
2022-10-30T00:30:59.744Z,10.67
2022-10-30T00:33:26.492Z,11.80
2022-10-30T00:35:53.180Z,9.70
2022-10-30T00:38:19.992Z,10.07
2022-10-30T00:40:46.798Z,9.60
2022-10-30T00:43:32.746Z,9.60
2022-10-30T00:46:04.890Z,9.50
2022-10-30T00:48:32.222Z,10.57
2022-10-30T00:51:01.078Z,10.47
2022-10-30T00:53:30.067Z,10.13
2022-10-30T00:56:00.550Z,11.03
2022-10-30T00:58:32.983Z,9.90
2022-10-30T01:01:04.860Z,10.70
2022-10-30T01:03:33.156Z,11.07
2022-10-30T01:06:02.806Z,11.27
2022-10-30T01:08:30.355Z,7.93
2022-10-30T01:10:58.126Z,10.37
2022-10-30T01:13:26.160Z,9.77
2022-10-30T01:16:08.946Z,8.63
2022-10-30T01:18:46.040Z,9.70
2022-10-30T01:21:22.019Z,7.77
2022-10-30T01:23:58.915Z,8.53
2022-10-30T01:26:38.449Z,10.30
2022-10-30T01:29:26.551Z,8.67
2022-10-30T01:32:05.726Z,11.87
2022-10-30T01:37:19.623Z,10.10
2022-10-30T01:39:46.381Z,11.20
2022-10-30T01:42:48.733Z,7.40
2022-10-30T01:45:26.642Z,8.97
2022-10-30T01:48:24.968Z,9.57
2022-10-30T01:50:56.933Z,10.30
2022-10-30T01:53:36.909Z,7.37
2022-10-30T01:56:18.542Z,8.87
2022-10-30T01:58:51.325Z,7.13
2022-10-30T02:01:18.871Z,8.90
2022-10-30T02:03:47.491Z,10.20
2022-10-30T02:06:14.377Z,7.83
2022-10-30T02:08:41.157Z,8.33
2022-10-30T02:11:09.536Z,8.50
2022-10-30T02:13:36.847Z,9.57
2022-10-30T02:16:03.963Z,6.90
2022-10-30T02:18:30.758Z,7.87
2022-10-30T02:20:59.078Z,5.97
2022-10-30T02:23:25.836Z,7.47
2022-10-30T02:25:52.593Z,7.90
2022-10-30T02:28:19.409Z,7.83
2022-10-30T02:30:46.197Z,9.27
2022-10-30T02:33:13.112Z,9.20
2022-10-30T02:35:39.966Z,7.73
2022-10-30T02:38:08.101Z,9.73
2022-10-30T02:40:34.901Z,8.30
2022-10-30T02:43:01.744Z,9.43
2022-10-30T02:45:29.113Z,10.00
2022-10-30T02:47:56.447Z,8.70
2022-10-30T02:50:23.408Z,8.87
2022-10-30T02:52:50.133Z,10.63
2022-10-30T02:55:18.716Z,11.00
2022-10-30T02:57:45.502Z,8.73
2022-10-30T03:00:13.404Z,9.37
2022-10-30T03:02:40.207Z,9.77
2022-10-30T03:05:07.626Z,9.53
2022-10-30T03:07:34.397Z,8.40
2022-10-30T03:10:01.151Z,8.90
2022-10-30T03:12:29.322Z,9.00
2022-10-30T03:14:56.094Z,8.43
2022-10-30T03:17:22.825Z,7.20
2022-10-30T03:19:49.540Z,9.27
2022-10-30T03:22:16.307Z,7.60
2022-10-30T03:24:43.100Z,8.20
2022-10-30T03:27:09.914Z,7.73
2022-10-30T03:29:38.001Z,11.53
2022-10-30T03:32:08.249Z,7.30
2022-10-30T03:34:35.102Z,6.90
2022-10-30T03:37:01.886Z,6.87
2022-10-30T03:39:28.641Z,7.07
2022-10-30T03:41:55.421Z,9.03
2022-10-30T03:44:22.263Z,7.83
2022-10-30T03:46:50.385Z,7.70
2022-10-30T03:49:17.162Z,7.73
2022-10-30T03:51:43.923Z,6.00
2022-10-30T03:54:10.687Z,7.30
2022-10-30T03:56:37.411Z,9.67
2022-10-30T03:59:04.180Z,7.70
2022-10-30T04:01:31.103Z,6.43
2022-10-30T04:03:59.247Z,5.97
2022-10-30T04:06:26.168Z,6.17
2022-10-30T04:08:54.712Z,6.23
2022-10-30T04:11:21.562Z,5.20
2022-10-30T04:13:49.555Z,6.37
2022-10-30T04:16:16.352Z,6.13
2022-10-30T04:18:43.231Z,7.33
2022-10-30T04:21:11.377Z,6.10
2022-10-30T04:23:38.141Z,7.30
2022-10-30T04:26:05.108Z,6.13
2022-10-30T04:28:31.894Z,6.17
2022-10-30T04:30:58.824Z,6.80
2022-10-30T04:33:25.778Z,4.70
2022-10-30T04:35:52.510Z,7.50
2022-10-30T04:38:20.619Z,8.70
2022-10-30T04:40:47.337Z,6.83
2022-10-30T04:43:14.695Z,7.73
2022-10-30T04:45:41.708Z,5.70
2022-10-30T04:48:10.633Z,8.50
2022-10-30T04:50:37.666Z,6.70
2022-10-30T04:53:06.878Z,9.47
2022-10-30T04:55:35.059Z,8.00
2022-10-30T04:58:02.182Z,5.80
2022-10-30T05:00:29.663Z,8.43
2022-10-30T05:02:58.965Z,8.97
2022-10-30T05:05:25.750Z,8.80
2022-10-30T05:07:52.559Z,6.77
2022-10-30T05:10:19.479Z,8.10
2022-10-30T05:12:47.638Z,7.87
2022-10-30T05:15:14.943Z,6.40
2022-10-30T05:17:41.733Z,5.60
2022-10-30T05:20:10.564Z,8.13
2022-10-30T05:22:38.905Z,7.30
2022-10-30T05:25:06.496Z,8.70
2022-10-30T05:27:33.294Z,7.73
2022-10-30T05:30:01.372Z,6.90
2022-10-30T05:32:28.142Z,8.43
2022-10-30T05:34:54.894Z,6.47
2022-10-30T05:37:21.666Z,5.40
2022-10-30T05:39:48.393Z,6.40
2022-10-30T05:42:15.158Z,7.57
2022-10-30T05:44:59.974Z,8.10
2022-10-30T05:47:28.970Z,5.70
2022-10-30T05:49:55.715Z,6.67
2022-10-30T05:52:22.484Z,7.70
2022-10-30T05:54:49.302Z,7.57
2022-10-30T05:57:16.077Z,6.57
2022-10-30T05:59:42.779Z,6.00
2022-10-30T06:02:09.695Z,4.87
2022-10-30T06:04:37.837Z,7.13
2022-10-30T06:07:04.621Z,6.30
2022-10-30T06:09:31.352Z,6.80
2022-10-30T06:11:58.531Z,7.20
2022-10-30T06:14:25.383Z,6.93
2022-10-30T06:16:52.184Z,7.47
2022-10-30T06:19:19.200Z,6.00
2022-10-30T06:21:47.706Z,7.23
2022-10-30T06:24:14.752Z,7.63
2022-10-30T06:26:41.642Z,4.63
2022-10-30T06:29:08.441Z,5.63
2022-10-30T06:31:35.280Z,7.20
2022-10-30T06:34:02.088Z,7.90
2022-10-30T06:36:28.859Z,5.50
2022-10-30T06:38:57.344Z,6.30
2022-10-30T06:41:26.141Z,8.43
2022-10-30T06:43:55.982Z,6.90
2022-10-30T06:46:25.652Z,7.20
2022-10-30T06:48:55.838Z,8.20
2022-10-30T06:51:22.870Z,6.17
2022-10-30T06:53:49.658Z,8.43
2022-10-30T06:56:17.826Z,9.07
2022-10-30T06:58:44.546Z,6.93
2022-10-30T07:01:11.334Z,8.83
2022-10-30T07:03:38.116Z,6.80
2022-10-30T07:06:05.300Z,9.30
2022-10-30T07:08:32.092Z,9.27
2022-10-30T07:10:58.827Z,9.50
2022-10-30T07:13:26.918Z,10.07
2022-10-30T07:15:53.697Z,10.03
2022-10-30T07:18:20.503Z,10.00
2022-10-30T07:20:47.287Z,9.00
2022-10-30T07:23:14.021Z,8.80
2022-10-30T07:25:40.843Z,9.00
2022-10-30T07:28:07.570Z,10.67
2022-10-30T07:30:35.918Z,10.63
2022-10-30T07:33:04.979Z,9.83
2022-10-30T07:35:32.863Z,9.10
2022-10-30T07:38:02.939Z,10.30
2022-10-30T07:40:30.156Z,11.03
2022-10-30T07:42:57.606Z,8.73
2022-10-30T07:45:27.425Z,10.90
2022-10-30T07:47:56.244Z,10.90
2022-10-30T07:50:23.641Z,9.50
2022-10-30T07:52:50.481Z,11.57
2022-10-30T07:55:17.436Z,11.20
2022-10-30T07:57:44.158Z,10.77
2022-10-30T08:00:13.552Z,10.93
2022-10-30T08:02:40.824Z,11.03
2022-10-30T08:05:09.882Z,10.10
2022-10-30T08:07:38.440Z,10.70
2022-10-30T08:10:06.401Z,11.00
2022-10-30T08:12:34.182Z,10.90
2022-10-30T08:15:01.154Z,10.40
2022-10-30T08:17:28.012Z,12.30
2022-10-30T08:19:54.785Z,10.60
2022-10-30T08:22:23.197Z,11.30
2022-10-30T08:24:50.047Z,11.03
2022-10-30T08:27:16.896Z,10.83
2022-10-30T08:29:43.665Z,10.70
2022-10-30T08:32:10.413Z,10.93
2022-10-30T08:34:37.178Z,10.17
2022-10-30T08:37:03.938Z,10.10
2022-10-30T08:39:31.981Z,10.20
2022-10-30T08:41:59.073Z,10.20
2022-10-30T08:44:26.377Z,9.57
2022-10-30T08:46:53.294Z,8.60
2022-10-30T08:49:20.035Z,8.83
2022-10-30T08:51:46.839Z,8.73
2022-10-30T08:54:13.702Z,8.33
2022-10-30T08:56:41.856Z,8.47
2022-10-30T08:59:08.595Z,7.80
2022-10-30T09:01:35.424Z,7.77
2022-10-30T09:04:02.747Z,6.90
2022-10-30T09:06:30.810Z,6.53
2022-10-30T09:08:57.575Z,7.17
2022-10-30T09:11:24.525Z,7.90
2022-10-30T09:13:58.796Z,8.33
2022-10-30T09:16:44.178Z,6.80
2022-10-30T09:22:22.771Z,7.40
2022-10-30T09:24:49.709Z,6.23
2022-10-30T09:27:16.565Z,6.40
2022-10-30T09:29:44.706Z,5.73
2022-10-30T09:32:11.583Z,5.80
2022-10-30T09:34:49.606Z,6.00
2022-10-30T09:37:24.934Z,6.13
2022-10-30T09:40:02.007Z,6.10
2022-10-30T09:43:58.592Z,5.43
2022-10-30T09:46:52.669Z,5.43
2022-10-30T09:49:35.244Z,6.27
2022-10-30T09:52:22.095Z,5.10
2022-10-30T09:55:00.875Z,5.53
2022-10-30T09:57:35.118Z,6.20
2022-10-30T10:00:09.297Z,5.90
2022-10-30T10:02:38.340Z,6.80
2022-10-30T10:05:15.392Z,5.67
2022-10-30T10:07:45.860Z,4.60
2022-10-30T10:10:19.979Z,5.53
2022-10-30T10:12:49.901Z,5.77
2022-10-30T10:15:25.487Z,6.10
2022-10-30T10:17:53.394Z,6.57
2022-10-30T10:20:32.094Z,5.83
2022-10-30T10:23:02.460Z,5.90
2022-10-30T10:25:30.981Z,6.23
2022-10-30T10:28:07.417Z,6.53
2022-10-30T10:30:47.171Z,5.50
2022-10-30T10:33:32.777Z,5.80
2022-10-30T10:36:10.036Z,5.17
2022-10-30T10:38:46.806Z,5.40
2022-10-30T10:41:24.995Z,5.60
2022-10-30T10:44:07.308Z,6.00
2022-10-30T10:46:46.543Z,5.10
2022-10-30T10:49:38.992Z,5.97
2022-10-30T10:52:12.253Z,5.00
2022-10-30T10:54:43.807Z,6.90
2022-10-30T10:57:17.586Z,6.40
2022-10-30T10:59:47.683Z,5.20
2022-10-30T11:02:30.773Z,5.67
2022-10-30T11:05:05.868Z,4.83
2022-10-30T11:07:38.459Z,4.70
2022-10-30T11:10:12.629Z,5.30
2022-10-30T11:12:39.378Z,5.07
2022-10-30T11:15:32.943Z,5.10
2022-10-30T11:18:02.299Z,5.53
2022-10-30T11:20:37.083Z,4.60
2022-10-30T11:23:39.844Z,6.60
2022-10-30T11:26:42.139Z,6.27
2022-10-30T11:29:13.776Z,5.37
2022-10-30T11:31:41.665Z,5.13
2022-10-30T11:34:28.762Z,5.00
2022-10-30T11:36:55.493Z,5.80
2022-10-30T11:39:25.441Z,4.80
2022-10-30T11:41:58.347Z,5.23
2022-10-30T11:44:30.256Z,4.80
2022-10-30T11:46:57.712Z,5.43
2022-10-30T11:49:28.262Z,5.40
2022-10-30T11:51:55.139Z,4.90
2022-10-30T11:54:23.414Z,5.00
2022-10-30T11:56:51.441Z,5.43
2022-10-30T11:59:21.444Z,6.20
2022-10-30T12:01:59.799Z,4.97
2022-10-30T12:04:28.684Z,5.27
2022-10-30T12:07:08.722Z,6.43
2022-10-30T12:09:44.470Z,4.83
2022-10-30T12:12:12.801Z,5.13
2022-10-30T12:14:39.650Z,5.00
2022-10-30T12:17:06.585Z,4.50
2022-10-30T12:19:34.855Z,4.90
2022-10-30T12:22:05.282Z,5.03
2022-10-30T12:24:42.179Z,6.00
2022-10-30T12:27:19.694Z,5.87
2022-10-30T12:30:09.937Z,4.60
2022-10-30T12:32:45.478Z,5.50
2022-10-30T12:35:36.009Z,6.40
2022-10-30T12:38:05.850Z,5.80
2022-10-30T12:40:40.549Z,4.70
2022-10-30T12:43:16.311Z,5.43
2022-10-30T12:45:45.726Z,5.30
2022-10-30T12:48:18.295Z,5.20
2022-10-30T12:50:53.534Z,5.60
2022-10-30T12:53:30.060Z,6.20
2022-10-30T12:56:01.499Z,6.03
2022-10-30T12:58:37.862Z,5.70
2022-10-30T13:01:14.491Z,5.33
2022-10-30T13:03:46.194Z,5.00
2022-10-30T13:06:17.352Z,5.03
2022-10-30T13:08:52.978Z,5.63
2022-10-30T13:11:36.265Z,5.90
2022-10-30T13:14:08.279Z,5.97
2022-10-30T13:17:05.898Z,5.03
2022-10-30T13:19:24.289Z,5.60
2022-10-30T13:23:03.699Z,6.30
2022-10-30T13:25:00.779Z,5.70
2022-10-30T13:27:38.933Z,5.23
2022-10-30T13:30:12.854Z,5.30
2022-10-30T13:32:50.398Z,5.00
2022-10-30T13:35:31.537Z,5.23
2022-10-30T13:38:06.051Z,5.17
2022-10-30T13:40:39.513Z,5.03
2022-10-30T13:43:21.277Z,5.53
2022-10-30T13:46:00.067Z,4.53
2022-10-30T13:48:41.572Z,5.40
2022-10-30T13:51:25.979Z,4.57
2022-10-30T13:54:01.952Z,5.70
2022-10-30T13:56:29.370Z,7.43
2022-10-30T13:59:08.501Z,4.90
2022-10-30T14:01:43.133Z,5.00
2022-10-30T14:04:16.027Z,5.60
2022-10-30T14:06:49.928Z,5.53
2022-10-30T14:09:24.114Z,5.27
2022-10-30T14:11:53.037Z,5.87
2022-10-30T14:14:30.680Z,5.63
2022-10-30T14:17:13.546Z,5.00
2022-10-30T14:20:17.699Z,4.20
2022-10-30T14:23:08.630Z,4.97
2022-10-30T14:25:35.548Z,4.50
2022-10-30T14:28:02.754Z,4.27
2022-10-30T14:30:29.739Z,5.30
2022-10-30T14:32:57.929Z,4.83
2022-10-30T14:35:30.987Z,4.83
2022-10-30T14:37:58.079Z,4.80
2022-10-30T14:40:37.469Z,5.27
2022-10-30T14:43:09.774Z,4.80
2022-10-30T14:45:43.216Z,5.80
2022-10-30T14:48:18.376Z,4.60
2022-10-30T14:50:56.648Z,5.33
2022-10-30T14:53:50.735Z,4.80
2022-10-30T14:56:26.513Z,5.33
2022-10-30T14:59:19.597Z,5.03
2022-10-30T15:01:50.722Z,4.07
2022-10-30T15:04:25.844Z,3.83
2022-10-30T15:07:01.701Z,5.10
2022-10-30T15:09:45.182Z,4.60
2022-10-30T15:12:25.371Z,5.53
2022-10-30T15:14:56.852Z,5.57
2022-10-30T15:17:28.871Z,6.00
2022-10-30T15:19:59.869Z,5.97
2022-10-30T15:22:28.561Z,5.90
2022-10-30T15:24:55.866Z,5.83
2022-10-30T15:27:25.177Z,5.17
2022-10-30T15:29:55.219Z,5.90
2022-10-30T15:32:23.895Z,5.67
2022-10-30T15:35:00.176Z,5.50
2022-10-30T15:37:27.803Z,6.67
2022-10-30T15:40:11.937Z,5.53
2022-10-30T15:42:39.514Z,5.40
2022-10-30T15:45:11.934Z,5.50
2022-10-30T15:47:46.109Z,5.47
2022-10-30T15:50:16.017Z,6.03
2022-10-30T15:52:43.756Z,5.43
2022-10-30T15:55:15.105Z,4.67
2022-10-30T16:00:35.051Z,4.90
2022-10-30T16:03:04.600Z,5.30
2022-10-30T16:05:33.787Z,4.83
2022-10-30T16:08:02.634Z,5.37
2022-10-30T16:10:33.278Z,4.47
2022-10-30T16:13:01.041Z,5.33
2022-10-30T16:15:29.886Z,5.70
2022-10-30T16:18:08.483Z,5.57
2022-10-30T16:20:40.551Z,5.83
2022-10-30T16:23:07.783Z,5.53
2022-10-30T16:25:34.929Z,5.73
2022-10-30T16:28:02.290Z,6.33
2022-10-30T16:30:29.595Z,4.90
2022-10-30T16:32:56.637Z,5.50
2022-10-30T16:35:24.876Z,5.47
2022-10-30T16:37:53.587Z,11.30
2022-10-30T16:40:24.606Z,13.83
2022-10-30T16:42:56.206Z,9.20
2022-10-30T16:45:48.794Z,7.67
2022-10-30T16:48:23.162Z,8.20
2022-10-30T16:50:49.997Z,8.63
2022-10-30T16:53:22.128Z,7.93
2022-10-30T16:55:49.163Z,7.60
2022-10-30T16:58:16.908Z,8.20
2022-10-30T17:00:49.729Z,8.60
2022-10-30T17:03:19.411Z,13.57
2022-10-30T17:05:57.479Z,10.50
2022-10-30T17:08:36.594Z,8.03
2022-10-30T17:11:05.078Z,7.60
2022-10-30T17:13:34.795Z,8.73
2022-10-30T17:16:23.394Z,11.93
2022-10-30T17:18:51.724Z,9.43
2022-10-30T17:21:21.912Z,11.90
2022-10-30T17:23:51.954Z,12.50
2022-10-30T17:26:18.906Z,13.90
2022-10-30T17:28:47.054Z,12.40
2022-10-30T17:31:25.609Z,14.00
2022-10-30T17:34:12.091Z,12.67
2022-10-30T17:36:38.876Z,13.33
2022-10-30T17:39:07.026Z,12.33
2022-10-30T17:41:34.190Z,12.90
2022-10-30T17:44:01.234Z,12.57
2022-10-30T17:46:28.226Z,17.67
2022-10-30T17:48:56.455Z,13.10
2022-10-30T17:51:23.225Z,13.30
2022-10-30T17:53:50.188Z,12.57
2022-10-30T17:56:23.063Z,14.70
2022-10-30T17:58:49.765Z,14.37
2022-10-30T18:01:18.603Z,17.47
2022-10-30T18:03:45.534Z,16.57
2022-10-30T18:06:16.459Z,17.40
2022-10-30T18:08:46.383Z,16.23
2022-10-30T18:11:19.317Z,16.07
2022-10-30T18:13:47.187Z,18.90
2022-10-30T18:16:15.224Z,17.80
2022-10-30T18:18:42.327Z,16.60
2022-10-30T18:21:12.527Z,17.67
2022-10-30T18:23:51.773Z,19.13
2022-10-30T18:26:22.811Z,24.97
2022-10-30T18:28:49.939Z,17.70
2022-10-30T18:31:18.285Z,17.97
2022-10-30T18:33:45.477Z,17.80
2022-10-30T18:36:13.530Z,17.00
2022-10-30T18:38:40.658Z,19.33
2022-10-30T18:41:13.453Z,23.90
2022-10-30T18:43:45.647Z,22.47
2022-10-30T18:46:15.343Z,22.10
2022-10-30T18:48:42.131Z,24.90
2022-10-30T18:51:16.161Z,22.10
2022-10-30T18:53:42.920Z,25.03
2022-10-30T18:56:10.057Z,23.10
2022-10-30T18:58:36.849Z,20.93
2022-10-30T19:01:13.088Z,26.97
2022-10-30T19:03:39.901Z,23.77
2022-10-30T19:06:10.966Z,22.73
2022-10-30T19:08:37.718Z,21.20
2022-10-30T19:11:04.677Z,19.17
2022-10-30T19:13:31.493Z,19.43
2022-10-30T19:16:00.672Z,21.00
2022-10-30T19:18:29.220Z,20.63
2022-10-30T19:21:04.485Z,18.53
2022-10-30T19:23:33.352Z,21.17
2022-10-30T19:26:00.200Z,21.23
2022-10-30T19:28:27.104Z,20.50
2022-10-30T19:30:53.903Z,19.07
2022-10-30T19:33:22.800Z,20.20
2022-10-30T19:35:54.885Z,21.47
2022-10-30T19:38:21.915Z,22.30
2022-10-30T19:40:49.203Z,20.33
2022-10-30T19:43:15.969Z,20.27
2022-10-30T19:45:42.959Z,18.70
2022-10-30T19:48:14.461Z,19.83
2022-10-30T19:50:42.937Z,25.00
2022-10-30T19:53:11.673Z,22.80
2022-10-30T19:55:39.954Z,20.60
2022-10-30T19:58:10.205Z,23.50
2022-10-30T20:00:38.459Z,26.20
2022-10-30T20:03:06.552Z,23.87
2022-10-30T20:05:35.572Z,23.27
2022-10-30T20:08:04.763Z,21.40
2022-10-30T20:10:34.801Z,22.17
2022-10-30T20:13:01.621Z,22.53
2022-10-30T20:15:28.451Z,23.07
2022-10-30T20:17:55.544Z,21.80
2022-10-30T20:20:25.001Z,22.83
2022-10-30T20:22:52.127Z,21.30
2022-10-30T20:25:19.687Z,20.77
2022-10-30T20:27:48.815Z,21.50
2022-10-30T20:30:18.945Z,23.10
2022-10-30T20:32:45.922Z,20.73
2022-10-30T20:35:13.639Z,19.83
2022-10-30T20:37:41.430Z,20.87
2022-10-30T20:40:14.312Z,21.73
2022-10-30T20:42:41.775Z,21.50
2022-10-30T20:45:15.522Z,21.20
2022-10-30T20:47:42.898Z,19.13
2022-10-30T20:50:10.096Z,18.17
2022-10-30T20:52:36.925Z,20.00
2022-10-30T20:55:04.176Z,17.20
2022-10-30T20:57:30.936Z,18.63
2022-10-30T20:59:57.795Z,20.90
2022-10-30T21:02:26.057Z,18.60
2022-10-30T21:04:52.816Z,18.87
2022-10-30T21:07:19.608Z,19.13
2022-10-30T21:09:46.333Z,19.93
2022-10-30T21:12:13.164Z,19.20
2022-10-30T21:14:39.866Z,19.43
2022-10-30T21:17:06.589Z,21.83
2022-10-30T21:19:34.739Z,17.80
2022-10-30T21:22:01.701Z,17.20
2022-10-30T21:24:28.464Z,17.93
2022-10-30T21:26:55.375Z,18.37
2022-10-30T21:29:22.108Z,19.13
2022-10-30T21:31:48.881Z,17.13
2022-10-30T21:34:16.500Z,16.33
2022-10-30T21:36:44.631Z,17.87
2022-10-30T21:39:11.364Z,16.63
2022-10-30T21:41:38.116Z,20.50
2022-10-30T21:44:05.012Z,17.00
2022-10-30T21:46:32.030Z,17.30
2022-10-30T21:49:03.577Z,17.80
2022-10-30T21:51:30.330Z,16.13
2022-10-30T21:53:58.521Z,16.00
2022-10-30T21:56:26.998Z,16.07
2022-10-30T21:58:55.376Z,15.90
2022-10-30T22:01:23.949Z,15.87
2022-10-30T22:03:51.124Z,16.60
2022-10-30T22:06:19.173Z,14.97
2022-10-30T22:08:46.346Z,14.80
2022-10-30T22:11:14.446Z,15.43
2022-10-30T22:13:41.535Z,15.80
2022-10-30T22:16:11.534Z,15.97
2022-10-30T22:18:38.462Z,14.70
2022-10-30T22:21:07.381Z,15.40
2022-10-30T22:23:35.456Z,13.20
2022-10-30T22:26:04.135Z,14.83
2022-10-30T22:28:33.171Z,14.80
2022-10-30T22:31:03.654Z,15.47
2022-10-30T22:33:31.370Z,15.70
2022-10-30T22:36:02.030Z,14.50
2022-10-30T22:38:28.774Z,15.13
2022-10-30T22:40:55.470Z,15.13
2022-10-30T22:43:22.249Z,13.20
2022-10-30T22:45:53.988Z,15.10
2022-10-30T22:48:20.683Z,13.97
2022-10-30T22:50:47.392Z,12.73
2022-10-30T22:53:14.110Z,14.33
2022-10-30T22:55:40.883Z,12.83
2022-10-30T22:58:07.657Z,12.93
2022-10-30T23:00:34.374Z,14.70
2022-10-30T23:03:02.849Z,12.90
2022-10-30T23:05:29.970Z,12.83
2022-10-30T23:07:56.702Z,12.40
2022-10-30T23:10:23.489Z,9.90
2022-10-30T23:12:50.906Z,10.00
2022-10-30T23:15:17.660Z,9.97
2022-10-30T23:17:44.399Z,9.97
2022-10-30T23:20:12.516Z,10.43
2022-10-30T23:22:39.247Z,9.70
2022-10-30T23:25:06.241Z,9.30
2022-10-30T23:27:33.047Z,11.43
2022-10-30T23:29:59.788Z,8.83
2022-10-30T23:32:26.598Z,8.53
2022-10-30T23:34:53.308Z,8.70
2022-10-30T23:37:21.375Z,8.90
2022-10-30T23:39:48.120Z,8.43
2022-10-30T23:42:15.250Z,8.73
2022-10-30T23:44:41.939Z,9.00
2022-10-30T23:47:08.736Z,8.40
2022-10-30T23:49:35.435Z,9.10
2022-10-30T23:52:02.190Z,8.20
2022-10-30T23:54:30.291Z,8.43
2022-10-30T23:56:57.063Z,7.97
2022-10-30T23:59:23.802Z,7.70
